Time;durP1;ratioP1;P1;durP2;ratioP2;P2;SDS_P1;SDS_P2;PMS_P1;PMS_P2;Temp;Humidity;BMP_temperature;BMP_pressure;BME280_temperature;BME280_humidity;BME280_pressure;Samples;Min_cycle;Max_cycle;Signal;HPM_P1;HPM_P2
2023/01/15 00:02:06;;;;;;;6.90;2.55;;;5.70;99.90;;;;;;4940228;28;20511;-72
2023/01/15 00:04:34;;;;;;;6.70;2.22;;;5.70;99.90;;;;;;4939732;29;20054;-68
2023/01/15 00:07:03;;;;;;;12.57;3.55;;;5.70;99.90;;;;;;4939205;29;20083;-69
2023/01/15 00:09:30;;;;;;;12.55;3.10;;;5.70;99.90;;;;;;4955078;28;20047;-68
2023/01/15 00:11:57;;;;;;;10.95;2.20;;;5.70;99.90;;;;;;4956663;28;20047;-69
2023/01/15 00:14:23;;;;;;;9.32;2.67;;;5.70;99.90;;;;;;4955912;28;20047;-69
2023/01/15 00:16:52;;;;;;;7.68;2.50;;;5.70;99.90;;;;;;4956730;28;20416;-69
2023/01/15 00:19:19;;;;;;;13.45;2.30;;;5.80;99.90;;;;;;4942903;28;20074;-69
2023/01/15 00:21:47;;;;;;;7.90;2.38;;;5.70;99.90;;;;;;4957806;28;20053;-69
2023/01/15 00:29:42;;;;;;;12.15;2.95;;;5.80;99.90;;;;;;4974257;28;20050;-69
2023/01/15 00:32:09;;;;;;;10.90;3.40;;;5.80;99.90;;;;;;4974076;28;20051;-68
2023/01/15 00:34:36;;;;;;;6.80;2.60;;;5.80;99.90;;;;;;4956680;28;20109;-69
2023/01/15 00:37:05;;;;;;;8.32;2.30;;;5.80;99.90;;;;;;4974069;28;20046;-69
2023/01/15 00:39:32;;;;;;;9.07;3.00;;;5.80;99.90;;;;;;4956808;28;20125;-68
2023/01/15 00:41:59;;;;;;;7.15;2.10;;;5.80;99.90;;;;;;4936689;28;20142;-69
2023/01/15 00:44:26;;;;;;;13.35;2.72;;;5.80;99.90;;;;;;4953731;28;20495;-69
2023/01/15 00:46:53;;;;;;;5.90;2.30;;;5.80;99.90;;;;;;4957576;28;20058;-68
2023/01/15 00:49:19;;;;;;;10.05;2.55;;;5.90;99.90;;;;;;4973146;28;20054;-68
2023/01/15 00:51:48;;;;;;;13.15;2.83;;;5.90;99.90;;;;;;4957094;28;20058;-69
2023/01/15 00:54:17;;;;;;;7.95;2.20;;;5.90;99.90;;;;;;4953803;28;20046;-69
2023/01/15 00:56:44;;;;;;;10.32;3.25;;;5.90;99.90;;;;;;4955878;28;20043;-69
2023/01/15 00:59:11;;;;;;;6.65;2.28;;;5.90;99.90;;;;;;4955984;28;20051;-69
2023/01/15 01:01:38;;;;;;;4.43;1.95;;;5.90;99.90;;;;;;4936071;29;20062;-69
2023/01/15 01:04:05;;;;;;;6.53;2.83;;;5.90;99.90;;;;;;4955854;28;20059;-69
2023/01/15 01:06:32;;;;;;;9.60;2.90;;;5.90;99.90;;;;;;4955610;28;20047;-69
2023/01/15 01:08:59;;;;;;;13.20;2.83;;;5.90;99.90;;;;;;4937881;28;20055;-69
2023/01/15 01:11:31;;;;;;;11.35;3.20;;;5.90;99.90;;;;;;4955318;29;20150;-68
2023/01/15 01:13:59;;;;;;;9.20;2.80;;;5.90;99.90;;;;;;4953844;28;20389;-69
2023/01/15 01:16:30;;;;;;;10.75;2.47;;;5.80;99.90;;;;;;4954598;28;20094;-70
2023/01/15 01:18:58;;;;;;;7.18;2.50;;;5.90;99.90;;;;;;4955396;28;20106;-69
2023/01/15 01:21:25;;;;;;;8.25;2.80;;;5.90;99.90;;;;;;4938419;28;20069;-69
2023/01/15 01:23:53;;;;;;;8.93;2.35;;;5.80;99.90;;;;;;4937529;28;20559;-68
2023/01/15 01:26:20;;;;;;;8.10;2.40;;;5.90;99.90;;;;;;4937347;28;20130;-70
2023/01/15 01:28:53;;;;;;;11.32;2.50;;;5.90;99.90;;;;;;4954527;28;20051;-68
2023/01/15 01:31:21;;;;;;;5.40;2.20;;;5.90;99.90;;;;;;4936936;28;20058;-69
2023/01/15 01:33:49;;;;;;;8.82;3.08;;;5.80;99.90;;;;;;4937261;28;20059;-69
2023/01/15 01:36:17;;;;;;;9.55;2.70;;;5.80;99.90;;;;;;4937346;28;20057;-70
2023/01/15 01:38:44;;;;;;;8.07;2.50;;;5.80;99.90;;;;;;4951514;28;20050;-69
2023/01/15 01:41:10;;;;;;;15.20;3.17;;;5.80;99.90;;;;;;4954000;28;20055;-69
2023/01/15 01:43:55;;;;;;;10.30;2.80;;;5.80;99.90;;;;;;4953693;28;20063;-69
2023/01/15 01:46:23;;;;;;;11.02;2.60;;;5.80;99.90;;;;;;4953643;28;20062;-69
2023/01/15 01:48:53;;;;;;;7.28;2.22;;;5.90;99.90;;;;;;4937260;28;20043;-69
2023/01/15 01:51:25;;;;;;;10.17;3.03;;;5.90;99.90;;;;;;4951307;28;20051;-69
2023/01/15 01:53:52;;;;;;;9.43;2.30;;;5.90;99.90;;;;;;4937269;28;20055;-69
2023/01/15 01:56:19;;;;;;;11.18;2.55;;;5.90;99.90;;;;;;4953884;28;20392;-68
2023/01/15 01:58:51;;;;;;;9.18;2.25;;;5.90;99.90;;;;;;4936384;28;20499;-69
2023/01/15 02:01:22;;;;;;;4.82;2.25;;;5.90;99.90;;;;;;4936758;28;20106;-69
2023/01/15 02:03:49;;;;;;;10.32;2.78;;;5.80;99.90;;;;;;4936951;28;20051;-69
2023/01/15 02:06:16;;;;;;;7.10;2.55;;;5.80;99.90;;;;;;4936148;28;20051;-68
2023/01/15 02:08:43;;;;;;;12.40;2.60;;;5.80;99.90;;;;;;4936830;28;20066;-69
2023/01/15 02:11:16;;;;;;;12.65;2.67;;;5.80;99.90;;;;;;4936166;28;20502;-68
2023/01/15 02:13:49;;;;;;;7.50;2.80;;;5.80;99.90;;;;;;4936248;28;20051;-68
2023/01/15 02:16:25;;;;;;;10.95;2.60;;;5.80;99.90;;;;;;4936668;28;20515;-69
2023/01/15 02:19:00;;;;;;;6.88;2.50;;;5.80;99.90;;;;;;4953089;28;20054;-69
2023/01/15 02:21:38;;;;;;;13.50;3.20;;;5.90;99.90;;;;;;4936691;28;20405;-69
2023/01/15 02:24:13;;;;;;;11.15;2.55;;;5.80;99.90;;;;;;4898764;29;1113602;-68
2023/01/15 02:27:04;;;;;;;6.70;2.35;;;5.80;99.90;;;;;;4953710;29;20054;-69
2023/01/15 02:29:40;;;;;;;8.00;2.80;;;5.80;99.90;;;;;;4936333;29;20055;-69
2023/01/15 02:32:13;;;;;;;11.10;2.80;;;5.70;99.90;;;;;;4936997;29;20051;-69
2023/01/15 02:34:48;;;;;;;15.27;3.60;;;5.80;99.90;;;;;;4952947;29;20174;-69
2023/01/15 02:37:22;;;;;;;22.25;3.42;;;5.80;99.90;;;;;;4951800;29;20096;-68
2023/01/15 02:39:51;;;;;;;7.40;2.45;;;5.80;99.90;;;;;;4936456;29;20059;-68
2023/01/15 02:42:22;;;;;;;6.95;2.60;;;5.80;99.90;;;;;;4935748;29;20058;-68
2023/01/15 02:44:52;;;;;;;11.30;3.08;;;5.80;99.90;;;;;;4936115;29;20047;-68
2023/01/15 02:47:24;;;;;;;12.50;3.03;;;5.80;99.90;;;;;;4935492;29;20051;-68
2023/01/15 02:49:54;;;;;;;10.40;2.88;;;5.80;99.90;;;;;;4953826;29;20457;-69
2023/01/15 02:52:26;;;;;;;11.15;2.83;;;5.80;99.90;;;;;;4936865;29;20067;-69
2023/01/15 02:54:58;;;;;;;13.70;3.63;;;5.80;99.90;;;;;;4935870;29;20055;-68
2023/01/15 02:57:30;;;;;;;14.23;4.05;;;5.80;99.90;;;;;;4934273;29;20531;-68
2023/01/15 02:59:59;;;;;;;8.27;2.58;;;5.80;99.90;;;;;;4953115;29;20047;-69
2023/01/15 03:02:32;;;;;;;11.75;2.83;;;5.80;99.90;;;;;;4952370;28;20423;-68
2023/01/15 03:05:05;;;;;;;12.07;3.20;;;5.80;99.90;;;;;;4956000;29;20149;-68
2023/01/15 03:07:37;;;;;;;12.00;2.42;;;5.80;99.90;;;;;;4957128;29;20065;-68
2023/01/15 03:10:05;;;;;;;7.47;3.08;;;5.80;99.90;;;;;;4957260;29;20058;-68
2023/01/15 03:18:10;;;;;;;8.52;2.92;;;5.90;99.90;;;;;;4955845;29;20523;-68
2023/01/15 03:20:42;;;;;;;14.65;2.88;;;5.90;99.90;;;;;;4940152;29;20055;-68
2023/01/15 03:23:13;;;;;;;9.43;2.20;;;5.90;99.90;;;;;;4956340;29;20461;-68
2023/01/15 03:25:42;;;;;;;;;;;5.90;99.90;;;;;;4974164;28;20050;-68
2023/01/15 03:28:14;;;;;;;8.68;2.83;;;5.90;99.90;;;;;;4974527;28;19973;-69
2023/01/15 03:30:41;;;;;;;8.57;2.50;;;5.90;99.90;;;;;;4958531;28;20082;-68
2023/01/15 03:33:10;;;;;;;14.43;3.78;;;5.90;99.90;;;;;;4959215;28;20047;-68
2023/01/15 03:35:47;;;;;;;8.68;3.00;;;5.90;99.90;;;;;;4958153;28;20467;-68
2023/01/15 03:38:16;;;;;;;12.57;3.20;;;6.00;99.90;;;;;;4975635;28;20058;-68
2023/01/15 03:40:52;;;;;;;8.52;3.03;;;5.90;99.90;;;;;;4975835;28;20106;-68
2023/01/15 03:43:43;;;;;;;13.27;2.60;;;5.90;99.90;;;;;;4974897;28;20050;-68
2023/01/15 03:46:23;;;;;;;10.95;2.97;;;6.00;99.90;;;;;;4958561;28;20057;-68
2023/01/15 03:48:58;;;;;;;11.07;3.10;;;5.90;99.90;;;;;;4958034;28;20110;-67
2023/01/15 03:51:32;;;;;;;9.27;2.67;;;5.90;99.90;;;;;;4973709;28;20442;-73
2023/01/15 03:54:04;;;;;;;9.20;2.67;;;5.80;99.90;;;;;;4958539;28;20047;-73
2023/01/15 03:56:36;;;;;;;10.85;2.60;;;5.80;99.90;;;;;;4957217;28;20581;-73
2023/01/15 03:59:09;;;;;;;9.70;2.72;;;5.80;99.90;;;;;;4958513;28;20051;-73
2023/01/15 04:01:39;;;;;;;11.82;2.85;;;5.80;99.90;;;;;;4975056;28;20058;-73
2023/01/15 04:04:07;;;;;;;11.43;3.65;;;5.80;99.90;;;;;;4975452;28;20051;-72
2023/01/15 04:06:38;;;;;;;10.23;2.95;;;5.80;99.90;;;;;;4974761;28;20415;-71
2023/01/15 04:09:08;;;;;;;15.13;2.65;;;5.80;99.90;;;;;;4975197;28;20073;-73
2023/01/15 04:11:35;;;;;;;8.82;2.60;;;5.80;99.90;;;;;;4957159;28;20050;-72
2023/01/15 04:14:03;;;;;;;11.00;3.28;;;5.80;99.90;;;;;;4974649;28;20054;-73
2023/01/15 04:16:33;;;;;;;8.15;2.85;;;5.80;99.90;;;;;;4975729;28;20395;-74
2023/01/15 04:19:00;;;;;;;8.95;3.10;;;5.80;99.90;;;;;;4959356;28;20514;-74
2023/01/15 04:21:27;;;;;;;8.32;3.03;;;5.70;99.90;;;;;;4975453;28;20069;-74
2023/01/15 04:23:54;;;;;;;8.80;2.80;;;5.70;99.90;;;;;;4974656;28;20066;-74
2023/01/15 04:26:21;;;;;;;9.00;2.85;;;5.60;99.90;;;;;;4957001;28;20047;-74
2023/01/15 04:28:48;;;;;;;13.60;3.13;;;5.70;99.90;;;;;;4957640;28;20061;-74
2023/01/15 04:31:17;;;;;;;11.85;2.65;;;5.60;99.90;;;;;;4957678;28;20101;-75
2023/01/15 04:33:44;;;;;;;11.20;2.95;;;5.60;99.90;;;;;;4956993;28;20043;-74
2023/01/15 04:36:13;;;;;;;13.90;2.88;;;5.60;99.90;;;;;;4957505;28;20578;-74
2023/01/15 04:38:40;;;;;;;14.30;3.00;;;5.60;99.90;;;;;;4956218;28;20054;-74
2023/01/15 04:44:08;;;;;;;11.88;2.45;;;5.50;99.90;;;;;;4915287;29;20044;-74
2023/01/15 04:46:39;;;;;;;9.50;2.45;;;5.50;99.90;;;;;;4957288;28;20058;-74
2023/01/15 04:49:08;;;;;;;13.88;2.53;;;5.50;99.90;;;;;;4957327;28;20070;-69
2023/01/15 04:51:35;;;;;;;10.77;3.00;;;5.60;99.90;;;;;;4973750;28;20056;-69
2023/01/15 04:54:03;;;;;;;11.50;2.75;;;5.60;99.90;;;;;;4973967;28;20434;-69
2023/01/15 04:56:30;;;;;;;7.95;2.58;;;5.60;99.90;;;;;;4956871;28;20082;-69
2023/01/15 04:59:00;;;;;;;12.93;2.90;;;5.60;99.90;;;;;;4957054;28;20061;-69
2023/01/15 05:01:27;;;;;;;12.98;2.88;;;5.60;99.90;;;;;;4968220;28;20082;-68
2023/01/15 05:03:57;;;;;;;9.77;3.80;;;5.60;99.90;;;;;;4956767;28;20062;-69
2023/01/15 05:06:24;;;;;;;11.07;3.37;;;5.60;99.90;;;;;;4956567;28;20491;-68
2023/01/15 05:08:50;;;;;;;10.13;2.50;;;5.50;99.90;;;;;;4973159;28;20046;-68
2023/01/15 05:11:17;;;;;;;9.80;2.67;;;5.40;99.90;;;;;;4974190;28;20058;-69
2023/01/15 05:13:44;;;;;;;12.05;3.35;;;5.50;99.90;;;;;;4973611;28;20073;-69
2023/01/15 05:16:14;;;;;;;8.40;2.50;;;5.50;99.90;;;;;;4956369;28;20043;-68
2023/01/15 05:18:42;;;;;;;14.43;2.83;;;5.40;99.90;;;;;;4956665;28;20231;-68
2023/01/15 05:21:16;;;;;;;18.08;3.45;;;5.40;99.90;;;;;;4956619;28;20054;-68
2023/01/15 05:23:43;;;;;;;12.10;2.70;;;5.40;99.90;;;;;;4973081;28;20125;-69
2023/01/15 05:26:11;;;;;;;12.23;3.00;;;5.40;99.90;;;;;;4953325;28;20049;-68
2023/01/15 05:28:38;;;;;;;11.15;3.03;;;5.30;99.90;;;;;;4955551;28;20093;-68
2023/01/15 05:31:09;;;;;;;11.88;4.28;;;5.30;99.90;;;;;;4973249;28;20055;-68
2023/01/15 05:33:37;;;;;;;9.48;2.50;;;5.30;99.90;;;;;;4945226;28;20498;-68
2023/01/15 05:36:05;;;;;;;13.43;2.38;;;5.30;99.90;;;;;;4972642;28;20043;-68
2023/01/15 05:38:33;;;;;;;7.95;2.78;;;5.40;99.90;;;;;;4972976;28;20050;-69
2023/01/15 05:41:47;;;;;;;12.35;2.88;;;5.30;99.90;;;;;;4973118;28;20047;-69
2023/01/15 05:43:50;;;;;;;9.73;2.38;;;5.30;99.90;;;;;;4972105;28;20055;-69
2023/01/15 05:46:17;;;;;;;8.07;2.60;;;5.10;99.90;;;;;;4956375;28;20046;-73
2023/01/15 05:48:44;;;;;;;11.25;2.75;;;5.10;99.90;;;;;;4937717;28;20043;-72
2023/01/15 05:51:11;;;;;;;11.68;3.17;;;5.10;99.90;;;;;;4939587;28;20519;-74
2023/01/15 05:53:39;;;;;;;10.75;3.85;;;5.10;99.90;;;;;;4956175;28;20051;-73
2023/01/15 05:56:07;;;;;;;10.80;3.20;;;5.10;99.90;;;;;;4972474;28;20407;-72
2023/01/15 05:58:34;;;;;;;11.70;2.95;;;5.10;99.90;;;;;;4972296;28;20046;-73
2023/01/15 06:01:06;;;;;;;5.80;2.20;;;5.10;99.90;;;;;;4956392;28;20086;-73
2023/01/15 06:03:34;;;;;;;9.98;2.40;;;5.10;99.90;;;;;;4973603;28;20507;-72
2023/01/15 06:06:00;;;;;;;18.90;3.35;;;5.20;99.90;;;;;;4955448;28;20043;-73
2023/01/15 06:08:27;;;;;;;9.57;2.55;;;5.10;99.90;;;;;;4972762;28;20047;-73
2023/01/15 06:10:56;;;;;;;7.50;2.10;;;5.00;99.90;;;;;;4941469;28;20101;-72
2023/01/15 06:13:23;;;;;;;7.22;2.58;;;5.10;99.90;;;;;;4973266;28;20051;-72
2023/01/15 06:15:49;;;;;;;10.40;2.85;;;5.00;99.90;;;;;;4938835;28;20101;-71
2023/01/15 06:18:16;;;;;;;12.27;2.95;;;5.00;99.90;;;;;;4967456;28;20051;-71
2023/01/15 06:20:43;;;;;;;9.57;2.45;;;5.00;99.90;;;;;;4937779;29;20061;-71
2023/01/15 06:23:10;;;;;;;10.63;2.55;;;5.00;99.90;;;;;;4953684;28;20047;-71
2023/01/15 06:25:37;;;;;;;8.80;2.60;;;5.00;99.90;;;;;;4972287;28;20134;-71
2023/01/15 06:28:07;;;;;;;15.70;3.42;;;5.10;99.90;;;;;;4952077;28;20054;-72
2023/01/15 06:30:35;;;;;;;11.32;2.58;;;5.00;99.90;;;;;;4936991;29;20511;-71
2023/01/15 06:33:02;;;;;;;10.60;2.30;;;5.00;99.90;;;;;;4936810;28;20055;-71
2023/01/15 06:35:29;;;;;;;8.30;2.45;;;5.00;99.90;;;;;;4952082;28;20468;-71
2023/01/15 06:37:56;;;;;;;7.55;2.17;;;5.00;99.90;;;;;;4953859;28;20758;-69
2023/01/15 06:40:24;;;;;;;6.35;2.10;;;5.00;99.90;;;;;;4936269;28;20503;-69
2023/01/15 06:48:28;;;;;;;13.45;3.08;;;5.20;99.90;;;;;;4953470;28;20266;-69
2023/01/15 06:50:54;;;;;;;8.40;2.67;;;5.00;99.90;;;;;;4937128;29;20055;-68
2023/01/15 06:53:21;;;;;;;12.43;3.05;;;5.00;99.90;;;;;;4936168;28;20507;-69
2023/01/15 06:55:48;;;;;;;5.88;1.70;;;5.00;99.90;;;;;;4936918;28;20503;-69
2023/01/15 06:58:15;;;;;;;7.32;2.55;;;5.00;99.90;;;;;;4936786;28;20043;-69
2023/01/15 07:00:52;;;;;;;13.25;3.63;;;5.00;99.90;;;;;;4952974;28;20134;-69
2023/01/15 07:03:18;;;;;;;7.72;2.20;;;5.10;99.90;;;;;;4936653;28;20465;-69
2023/01/15 07:05:45;;;;;;;10.40;2.30;;;5.00;99.90;;;;;;4953107;28;20094;-68
2023/01/15 07:08:12;;;;;;;10.93;2.83;;;5.00;99.90;;;;;;4953111;28;20070;-68
2023/01/15 07:10:40;;;;;;;10.70;3.05;;;5.00;99.90;;;;;;4936691;28;20061;-68
2023/01/15 07:13:07;;;;;;;7.93;2.35;;;5.00;99.90;;;;;;4936951;28;20130;-69
2023/01/15 07:15:34;;;;;;;10.68;2.83;;;5.00;99.90;;;;;;4952302;29;20508;-69
2023/01/15 07:18:04;;;;;;;10.23;2.47;;;5.00;99.90;;;;;;4953242;28;20419;-68
2023/01/15 07:20:31;;;;;;;4.70;2.10;;;4.90;99.90;;;;;;4936649;28;20061;-69
2023/01/15 07:22:57;;;;;;;7.97;2.72;;;4.90;99.90;;;;;;4952254;28;20047;-68
2023/01/15 07:25:24;;;;;;;7.28;2.28;;;4.90;99.90;;;;;;4951174;28;20518;-68
2023/01/15 07:27:51;;;;;;;5.95;2.08;;;4.90;99.90;;;;;;4955057;28;20046;-68
2023/01/15 07:30:18;;;;;;;7.68;2.33;;;4.90;99.90;;;;;;4971843;28;20055;-68
2023/01/15 07:32:45;;;;;;;8.50;2.22;;;4.90;99.90;;;;;;4971901;28;20050;-69
2023/01/15 07:35:14;;;;;;;9.02;2.20;;;4.90;99.90;;;;;;4954041;28;20058;-68
2023/01/15 07:37:42;;;;;;;13.07;3.05;;;5.10;99.90;;;;;;4966746;28;20136;-68
2023/01/15 07:40:11;;;;;;;6.43;1.85;;;5.10;99.90;;;;;;4948399;28;20492;-68
2023/01/15 07:50:56;;;;;;;7.45;2.13;;;5.00;99.90;;;;;;4965923;28;20058;-68
2023/01/15 07:53:26;;;;;;;6.13;1.88;;;5.00;99.90;;;;;;4972769;28;20054;-68
2023/01/15 07:55:53;;;;;;;7.30;2.30;;;5.00;99.90;;;;;;4974847;28;20515;-68
2023/01/15 07:58:20;;;;;;;10.20;2.40;;;5.10;99.90;;;;;;4954238;28;20097;-69
2023/01/15 08:00:46;;;;;;;6.90;2.50;;;5.00;99.90;;;;;;4955772;28;20043;-69
2023/01/15 08:03:13;;;;;;;11.27;2.88;;;5.00;99.90;;;;;;4970671;28;20051;-69
2023/01/15 08:05:40;;;;;;;5.30;1.88;;;5.10;99.90;;;;;;4957551;28;20047;-68
2023/01/15 08:08:14;;;;;;;8.05;2.53;;;5.20;99.90;;;;;;4957858;28;20050;-69
2023/01/15 08:15:11;;;;;;;11.43;2.78;;;5.20;99.90;;;;;;4972063;28;20069;-68
2023/01/15 08:16:16;;;;;;;15.25;2.72;;;5.30;99.90;;;;;;4972009;28;20186;-67
2023/01/15 08:18:44;;;;;;;11.40;2.53;;;5.40;99.90;;;;;;4970696;28;20463;-68
2023/01/15 08:21:15;;;;;;;7.88;2.40;;;5.50;99.90;;;;;;4973910;28;20126;-69
2023/01/15 08:23:45;;;;;;;;;;;5.70;99.90;;;;;;4975799;28;20073;-67
2023/01/15 08:26:12;;;;;;;6.75;2.30;;;6.10;99.90;;;;;;4950677;28;19923;-68
2023/01/15 08:28:39;;;;;;;7.90;2.25;;;6.40;99.90;;;;;;4974507;28;20086;-69
2023/01/15 08:31:07;;;;;;;6.72;2.20;;;6.60;99.90;;;;;;4973896;28;20093;-69
2023/01/15 08:33:34;;;;;;;7.00;3.47;;;6.50;99.90;;;;;;4956253;28;20500;-68
2023/01/15 08:36:01;;;;;;;10.32;2.85;;;6.20;99.90;;;;;;4955903;28;20046;-68
2023/01/15 08:38:28;;;;;;;10.35;3.30;;;5.90;99.90;;;;;;4973882;28;20121;-68
2023/01/15 08:40:59;;;;;;;9.15;2.75;;;5.70;99.90;;;;;;4955169;28;20487;-68
2023/01/15 08:43:27;;;;;;;5.43;2.28;;;5.70;99.90;;;;;;4955515;28;20051;-69
2023/01/15 08:45:57;;;;;;;8.43;2.85;;;5.50;99.90;;;;;;4956530;28;20059;-70
2023/01/15 08:48:24;;;;;;;9.63;2.85;;;5.50;99.90;;;;;;4969895;28;20082;-69
2023/01/15 08:50:51;;;;;;;4.78;2.20;;;5.50;99.90;;;;;;4975612;28;20046;-69
2023/01/15 08:53:19;;;;;;;9.30;2.35;;;5.50;99.90;;;;;;4954038;28;20062;-69
2023/01/15 08:55:46;;;;;;;9.27;2.53;;;5.50;99.90;;;;;;4975411;28;20050;-68
2023/01/15 08:58:15;;;;;;;9.60;3.58;;;5.30;99.90;;;;;;4973862;28;20050;-67
2023/01/15 09:00:42;;;;;;;12.60;2.20;;;5.10;99.90;;;;;;4971564;28;20055;-68
2023/01/15 09:03:09;;;;;;;10.38;2.10;;;4.80;99.90;;;;;;4954662;28;20055;-67
2023/01/15 09:05:37;;;;;;;11.25;3.15;;;4.60;99.90;;;;;;4969584;28;20055;-68
2023/01/15 09:08:04;;;;;;;9.00;2.40;;;4.60;99.90;;;;;;4954407;28;20075;-69
2023/01/15 09:10:31;;;;;;;6.97;2.63;;;4.60;99.90;;;;;;4971166;28;20054;-68
2023/01/15 09:13:00;;;;;;;12.27;2.83;;;4.70;99.90;;;;;;4954383;28;20055;-68
2023/01/15 09:15:28;;;;;;;14.45;2.95;;;4.70;99.90;;;;;;4969864;28;20082;-67
2023/01/15 09:17:56;;;;;;;9.68;2.40;;;4.80;99.90;;;;;;4955735;28;20058;-69
2023/01/15 09:20:24;;;;;;;8.18;2.75;;;4.80;99.90;;;;;;4974841;28;20053;-69
2023/01/15 09:22:51;;;;;;;6.60;2.55;;;4.90;99.90;;;;;;4953658;28;20055;-69
2023/01/15 09:25:22;;;;;;;7.18;2.67;;;4.90;99.90;;;;;;4954359;28;20054;-69
2023/01/15 09:27:49;;;;;;;7.15;2.58;;;4.80;99.90;;;;;;4968660;28;20043;-69
2023/01/15 09:30:19;;;;;;;6.13;2.80;;;4.80;99.90;;;;;;4970307;28;21365;-69
2023/01/15 09:32:47;;;;;;;12.95;2.70;;;4.80;99.90;;;;;;4971392;28;20053;-69
2023/01/15 09:35:14;;;;;;;13.88;2.78;;;4.90;99.90;;;;;;4968822;28;20050;-68
2023/01/15 09:37:41;;;;;;;15.00;2.80;;;5.30;99.90;;;;;;4971456;28;20051;-69
2023/01/15 09:40:29;;;;;;;12.15;3.35;;;5.50;99.90;;;;;;4960963;28;20105;-68
2023/01/15 09:42:59;;;;;;;14.02;2.88;;;5.60;99.90;;;;;;4989863;28;20043;-68
2023/01/15 09:45:30;;;;;;;7.50;2.25;;;5.60;99.90;;;;;;4988695;28;20054;-67
2023/01/15 09:48:11;;;;;;;14.32;2.75;;;6.00;99.90;;;;;;4990118;28;20042;-68
2023/01/15 09:50:49;;;;;;;8.20;2.38;;;6.70;99.90;;;;;;4986466;28;20085;-69
2023/01/15 09:53:37;;;;;;;8.65;3.08;;;7.70;99.90;;;;;;4985832;28;20490;-69
2023/01/15 09:56:05;;;;;;;7.45;2.38;;;8.50;99.90;;;;;;4988589;28;20046;-68
2023/01/15 09:58:35;;;;;;;9.70;2.30;;;9.40;99.90;;;;;;4972795;28;20093;-68
2023/01/15 10:01:02;;;;;;;8.90;2.20;;;9.40;99.90;;;;;;4973471;28;20042;-69
2023/01/15 10:03:36;;;;;;;12.90;2.35;;;9.20;99.90;;;;;;4988168;28;20391;-69
2023/01/15 10:06:11;;;;;;;8.85;2.83;;;9.10;99.90;;;;;;4973631;28;20140;-70
2023/01/15 10:08:42;;;;;;;8.40;2.45;;;8.80;99.90;;;;;;4985215;28;20636;-69
2023/01/15 10:12:33;;;;;;;9.70;2.88;;;8.50;99.90;;;;;;4972635;28;20054;-68
2023/01/15 10:14:21;;;;;;;7.60;2.42;;;8.30;99.90;;;;;;4989128;28;20081;-70
2023/01/15 10:16:48;;;;;;;8.10;2.20;;;8.40;99.90;;;;;;4983629;28;20046;-69
2023/01/15 10:19:17;;;;;;;9.80;2.60;;;8.50;99.90;;;;;;4971318;28;20072;-69
2023/01/15 10:21:53;;;;;;;9.90;2.63;;;9.10;99.90;;;;;;4970890;28;20057;-69
2023/01/15 10:24:27;;;;;;;13.63;2.65;;;9.20;99.90;;;;;;4984625;28;20081;-68
2023/01/15 10:26:56;;;;;;;14.52;2.80;;;9.30;99.90;;;;;;4988684;28;20061;-68
2023/01/15 10:29:30;;;;;;;9.80;2.35;;;9.20;99.90;;;;;;4970197;28;20495;-68
2023/01/15 10:32:03;;;;;;;7.28;2.10;;;9.50;99.90;;;;;;4986609;28;20490;-69
2023/01/15 10:34:47;;;;;;;12.70;2.40;;;10.70;99.90;;;;;;4971607;28;20502;-68
2023/01/15 10:37:21;;;;;;;8.52;2.30;;;10.60;99.90;;;;;;4970748;28;20043;-69
2023/01/15 10:39:59;;;;;;;10.38;2.83;;;10.60;99.90;;;;;;4969243;28;20494;-68
2023/01/15 10:42:37;;;;;;;8.00;2.15;;;10.60;99.90;;;;;;4970931;28;20046;-68
2023/01/15 10:45:13;;;;;;;8.98;2.10;;;9.90;99.90;;;;;;4987736;28;20058;-69
2023/01/15 10:47:43;;;;;;;6.32;2.05;;;8.80;99.90;;;;;;4972890;28;20141;-69
2023/01/15 10:50:18;;;;;;;10.70;2.95;;;8.80;99.90;;;;;;4973065;28;20061;-70
2023/01/15 10:52:50;;;;;;;7.20;2.13;;;9.40;99.90;;;;;;4971995;28;22649;-69
2023/01/15 10:55:23;;;;;;;12.40;4.00;;;10.10;99.90;;;;;;4972393;28;20053;-70
2023/01/15 10:57:55;;;;;;;11.38;2.15;;;10.70;99.90;;;;;;4969889;28;20598;-69
2023/01/15 11:00:23;;;;;;;8.80;2.83;;;10.60;99.90;;;;;;4989550;28;20047;-69
2023/01/15 11:02:58;;;;;;;11.07;1.90;;;10.60;99.90;;;;;;4989207;28;20050;-68
2023/01/15 11:05:26;;;;;;;14.50;3.05;;;10.30;99.90;;;;;;4971996;28;20494;-68
2023/01/15 11:07:54;;;;;;;7.10;2.38;;;10.20;99.90;;;;;;4987901;28;20513;-69
2023/01/15 11:10:23;;;;;;;12.57;2.40;;;10.60;99.90;;;;;;4972203;28;20198;-68
2023/01/15 11:21:18;;;;;;;8.15;2.30;;;10.90;99.90;;;;;;4986452;28;21317;-69
2023/01/15 11:23:45;;;;;;;8.90;1.85;;;10.50;99.90;;;;;;4972441;28;20517;-69
2023/01/15 11:26:18;;;;;;;9.15;2.97;;;10.40;99.90;;;;;;4990372;28;20056;-69
2023/01/15 11:28:46;;;;;;;9.43;2.65;;;10.00;99.90;;;;;;4991893;28;20054;-68
2023/01/15 11:31:14;;;;;;;6.78;2.45;;;9.20;99.90;;;;;;4970974;28;20716;-69
2023/01/15 11:33:43;;;;;;;10.63;2.35;;;8.70;99.90;;;;;;4969161;28;20562;-69
2023/01/15 11:36:23;;;;;;;10.73;2.40;;;8.50;99.90;;;;;;4969925;28;20407;-68
2023/01/15 11:38:51;;;;;;;12.50;2.78;;;8.20;99.90;;;;;;4988791;28;20053;-68
2023/01/15 11:50:42;;;;;;;7.38;1.95;;;8.10;99.90;;;;;;4992979;28;20066;-69
2023/01/15 11:52:26;;;;;;;14.93;3.75;;;7.60;99.90;;;;;;4992325;28;20073;-69
2023/01/15 11:54:55;;;;;;;9.70;2.75;;;7.40;99.90;;;;;;4975526;28;20055;-69
2023/01/15 11:57:28;;;;;;;7.75;2.20;;;7.20;99.90;;;;;;4974917;28;20097;-69
2023/01/15 11:59:55;;;;;;;13.73;3.40;;;7.00;99.90;;;;;;4988591;28;20047;-67
2023/01/15 12:02:33;;;;;;;10.75;3.03;;;6.90;99.90;;;;;;4989544;28;20062;-69
2023/01/15 12:05:02;;;;;;;14.68;3.85;;;6.80;99.90;;;;;;4984557;28;20479;-68
2023/01/15 12:07:31;;;;;;;12.95;3.42;;;6.80;99.90;;;;;;4991647;28;20050;-68
2023/01/15 12:10:14;;;;;;;17.88;3.05;;;6.80;99.90;;;;;;4988146;28;20050;-70
2023/01/15 12:12:55;;;;;;;12.68;2.60;;;6.80;99.90;;;;;;4990629;28;20580;-69
2023/01/15 12:15:42;;;;;;;10.77;3.70;;;6.70;99.90;;;;;;4990075;28;20054;-70
2023/01/15 12:18:27;;;;;;;13.63;3.05;;;6.80;99.90;;;;;;4986966;28;20490;-68
2023/01/15 12:21:03;;;;;;;8.77;2.63;;;6.70;99.90;;;;;;4988565;28;20106;-68
2023/01/15 12:23:44;;;;;;;13.05;3.42;;;6.50;99.90;;;;;;4987796;28;20082;-67
2023/01/15 12:26:19;;;;;;;9.45;4.38;;;6.40;99.90;;;;;;4988464;28;20042;-68
2023/01/15 12:28:55;;;;;;;7.55;2.42;;;6.20;99.90;;;;;;4989428;28;20531;-68
2023/01/15 12:31:27;;;;;;;7.88;2.28;;;5.60;99.90;;;;;;4990755;28;20458;-67
2023/01/15 12:33:59;;;;;;;11.15;3.00;;;5.10;99.90;;;;;;4988212;28;20047;-68
2023/01/15 12:36:31;;;;;;;7.13;2.35;;;4.80;99.90;;;;;;4975022;28;20054;-69
2023/01/15 12:39:01;;;;;;;4.70;1.85;;;4.70;99.90;;;;;;4973974;28;20062;-68
2023/01/15 12:47:07;;;;;;;7.10;2.22;;;4.70;99.90;;;;;;4976567;28;20057;-68
2023/01/15 12:49:40;;;;;;;6.20;2.70;;;4.80;99.90;;;;;;4975350;28;20574;-68
2023/01/15 12:52:11;;;;;;;5.47;2.20;;;4.90;99.90;;;;;;4974535;28;20061;-68
2023/01/15 12:54:48;;;;;;;6.55;2.17;;;4.90;99.90;;;;;;4989511;28;20050;-68
2023/01/15 12:57:23;;;;;;;4.03;2.30;;;4.90;99.90;;;;;;4972024;28;20436;-68
2023/01/15 12:59:58;;;;;;;5.13;1.80;;;4.90;99.90;;;;;;4976289;28;20046;-68
2023/01/15 13:02:33;;;;;;;3.35;1.92;;;5.00;99.90;;;;;;4987283;28;20051;-68
2023/01/15 13:05:16;;;;;;;7.45;2.40;;;5.00;99.90;;;;;;4991106;28;20108;-68
2023/01/15 13:07:48;;;;;;;5.07;2.00;;;5.00;99.90;;;;;;4987162;28;20047;-68
2023/01/15 13:10:20;;;;;;;5.70;2.00;;;5.00;99.90;;;;;;4970065;28;20058;-70
2023/01/15 13:12:46;;;;;;;8.20;2.20;;;5.10;99.90;;;;;;4990572;28;20514;-68
2023/01/15 13:15:16;;;;;;;5.18;2.17;;;5.10;99.90;;;;;;4987588;28;20530;-68
2023/01/15 13:17:55;;;;;;;7.97;2.97;;;5.10;99.90;;;;;;4972390;28;20051;-68
2023/01/15 13:20:35;;;;;;;5.70;2.47;;;5.10;99.90;;;;;;4986784;28;20389;-69
2023/01/15 13:23:09;;;;;;;4.43;2.00;;;5.20;99.90;;;;;;4987732;28;20049;-68
2023/01/15 13:25:56;;;;;;;6.55;2.42;;;5.20;99.90;;;;;;4988873;28;20058;-68
2023/01/15 13:28:33;;;;;;;4.45;1.90;;;5.20;99.90;;;;;;4988847;28;20065;-68
2023/01/15 13:31:11;;;;;;;9.50;2.95;;;5.10;99.90;;;;;;4969346;28;20058;-68
2023/01/15 13:33:42;;;;;;;4.57;1.83;;;5.10;99.90;;;;;;4989471;28;20065;-68
2023/01/15 13:36:15;;;;;;;4.57;2.10;;;4.10;99.90;;;;;;4968967;28;20054;-68
2023/01/15 13:38:45;;;;;;;5.20;1.83;;;5.10;99.90;;;;;;4985480;28;20051;-72
2023/01/15 13:42:30;;;;;;;12.00;2.35;;;5.10;99.90;;;;;;4970428;28;20051;-68
2023/01/15 13:44:17;;;;;;;7.97;2.35;;;5.10;99.90;;;;;;4987548;28;20129;-69
2023/01/15 13:46:46;;;;;;;6.88;2.42;;;5.10;99.90;;;;;;4983858;28;20077;-70
2023/01/15 13:49:21;;;;;;;7.38;2.10;;;5.00;99.90;;;;;;4972055;28;20058;-69
2023/01/15 13:51:50;;;;;;;6.78;1.80;;;4.80;99.90;;;;;;4970374;28;20058;-68
2023/01/15 13:54:18;;;;;;;5.68;2.10;;;4.60;99.90;;;;;;4989526;28;20116;-68
2023/01/15 13:56:47;;;;;;;2.83;1.70;;;4.50;99.90;;;;;;4969053;28;20058;-68
2023/01/15 13:59:43;;;;;;;2.65;1.45;;;4.40;99.90;;;;;;4969485;28;20057;-70
2023/01/15 14:02:27;;;;;;;3.55;1.70;;;4.40;99.90;;;;;;4930195;28;20120;-69
2023/01/15 14:04:55;;;;;;;8.70;2.20;;;4.40;99.90;;;;;;4969766;28;20487;-70